2006 CLARE (2006006S11129)


On this page: IBTrACS data - Map and Plots - Positions - Intensities - Original source data

Summary

Start Jan 6
End Jan 10
Basin SI
LMI 76 kt
Sources jtwc_sh
bom
neumann
In WMO? Yes
Previous storm 2005 ZETA (NA)
Previous in basin 2006 MISSING (SI)
Concurrent storms 2005 ZETA (NA)
2006 CLARE (SI)
2006 TAM (SP)
Next in basin Missing
Next storm 2006 TAM (SP)

top of page IBTrACS Data: File Access

top of page HURSAT Data: File Access

Image of storm

top of page Plots:

Map of storm track will not appear if FTP is down
Time series of cyclone Maximum Sustained Wind will not appear if FTP is down
Time series of cyclone Minimum Central Pressure will not appear if FTP is down

top of page Track Data:Position

jtwc_sh bom neumann
Date Lat Lon Lat Lon Lat Lon
2006-01-06 06:00:00 -11.3 129.1
2006-01-06 12:00:00 -11.4 127.9
2006-01-06 18:00:00 -12.0 124.4 -11.8 126.5 -12.0 124.4
2006-01-07 00:00:00 -12.5 123.8 -12.7 125.3 -12.5 123.8
2006-01-07 06:00:00 -13.2 123.3 -13.6 124.2 -13.2 123.3
2006-01-07 12:00:00 -14.4 123.0 -14.5 123.2 -14.4 123.0
2006-01-07 18:00:00 -15.3 121.8 -15.4 121.8 -15.3 121.8
2006-01-08 00:00:00 -15.5 120.8 -16.0 120.6 -15.5 120.8
2006-01-08 06:00:00 -16.3 119.7 -16.5 119.9 -16.3 119.7
2006-01-08 12:00:00 -17.2 118.9 -17.4 119.2 -17.2 118.9
2006-01-08 18:00:00 -18.1 118.1 -18.1 118.3 -18.1 118.1
2006-01-09 00:00:00 -18.8 117.5 -18.8 117.7 -18.8 117.5
2006-01-09 06:00:00 -19.4 117.0 -19.7 117.1 -19.4 117.0
2006-01-09 12:00:00 -20.1 116.4 -20.4 116.6 -20.1 116.4
2006-01-09 18:00:00 -20.9 116.3 -20.9 116.3 -20.9 116.3
2006-01-10 00:00:00 -21.8 116.3 -21.7 116.3 -21.8 116.3
2006-01-10 06:00:00 -22.5 116.2 -22.6 116.2 -22.5 116.2
2006-01-10 12:00:00 -23.1 116.2 -23.0 116.2 -23.1 116.2
2006-01-10 18:00:00 -23.5 116.4 -23.6 116.2 -23.5 116.4

top of pageTrack Data:Intensity

jtwc_sh bom neumann
Date Wind Pres Wind Pres Wind Pres
2006-01-06 06:00:00 19. 1002.
2006-01-06 12:00:00 25. 1000.
2006-01-06 18:00:00 20. 1004. 25. 996. 20.
2006-01-07 00:00:00 25. 1002. 25. 996. 25.
2006-01-07 06:00:00 25. 1002. 29. 996. 25.
2006-01-07 12:00:00 30. 1000. 41. 994. 30.
2006-01-07 18:00:00 35. 997. 45. 990. 35.
2006-01-08 00:00:00 35. 997. 51. 982. 35.
2006-01-08 06:00:00 40. 994. 51. 982. 40.
2006-01-08 12:00:00 45. 991. 51. 982. 45.
2006-01-08 18:00:00 55. 984. 60. 972. 55.
2006-01-09 00:00:00 60. 980. 70. 964. 60.
2006-01-09 06:00:00 55. 984. 76. 960. 55.
2006-01-09 12:00:00 55. 984. 76. 960. 55.
2006-01-09 18:00:00 55. 984. 64. 968. 55.
2006-01-10 00:00:00 55. 984. 60. 972. 55.
2006-01-10 06:00:00 55. 984. 54. 974. 55.
2006-01-10 12:00:00 45. 991. 41. 990. 45.
2006-01-10 18:00:00 35. 997. 29. 996. 35.

top of page Links to source data

Source Source file Format
jtwc_sh bsh052006.txt ATCF
bom Newcyclonedatabase-08repair.csv:Line=21286:CLARE CSV file (from Excel file)
neumann tracks.sh:Storm=1333:Clare:BSH052005:JTWC HURDAT